Time;durP1;ratioP1;P1;durP2;ratioP2;P2;SDS_P1;SDS_P2;PMS_P1;PMS_P2;Temp;Humidity;BMP_temperature;BMP_pressure;BME280_temperature;BME280_humidity;BME280_pressure;Samples;Min_cycle;Max_cycle;Signal;HPM_P1;HPM_P2
2024/02/23 00:00:24;;;;;;;5.55;1.10;;;;;;;;;;6188793;23;20432;-95
2024/02/23 00:02:49;;;;;;;6.40;1.00;;;;;;;;;;6188647;23;20001;-95
2024/02/23 00:05:15;;;;;;;9.50;1.10;;;;;;;;;;6188016;23;20004;-94
2024/02/23 00:07:40;;;;;;;7.53;0.95;;;;;;;;;;6189154;23;20008;-94
2024/02/23 00:10:06;;;;;;;3.58;1.10;;;;;;;;;;6188924;23;20004;-94
2024/02/23 00:12:31;;;;;;;6.05;0.90;;;;;;;;;;6189751;23;20308;-95
2024/02/23 00:14:56;;;;;;;9.75;1.52;;;;;;;;;;6189953;23;20004;-95
2024/02/23 00:17:23;;;;;;;8.75;1.75;;;;;;;;;;6191324;23;20036;-95
2024/02/23 00:19:49;;;;;;;8.13;1.58;;;;;;;;;;6192019;23;20032;-95
2024/02/23 00:22:14;;;;;;;7.45;1.58;;;;;;;;;;6192412;23;20570;-95
2024/02/23 00:24:40;;;;;;;14.93;2.15;;;;;;;;;;6192246;23;20012;-94
2024/02/23 00:27:06;;;;;;;13.25;3.17;;;;;;;;;;6192982;23;20343;-95
2024/02/23 00:29:31;;;;;;;5.00;0.95;;;;;;;;;;6191856;23;19997;-96
2024/02/23 00:31:56;;;;;;;8.23;1.15;;;;;;;;;;6191893;23;20001;-94
2024/02/23 00:34:22;;;;;;;6.05;1.13;;;;;;;;;;6190756;23;19992;-95
2024/02/23 00:36:48;;;;;;;13.10;1.88;;;;;;;;;;6189355;23;19997;-96
2024/02/23 00:39:14;;;;;;;12.77;1.73;;;;;;;;;;6189584;23;20017;-95
2024/02/23 00:41:39;;;;;;;10.25;1.50;;;;;;;;;;6188548;23;20024;-94
2024/02/23 00:44:05;;;;;;;8.27;1.50;;;;;;;;;;6190000;23;20450;-94
2024/02/23 00:46:30;;;;;;;4.57;0.93;;;;;;;;;;6190875;23;20008;-95
2024/02/23 00:48:56;;;;;;;10.55;1.10;;;;;;;;;;6191385;23;20084;-94
2024/02/23 00:51:21;;;;;;;10.05;1.20;;;;;;;;;;6192085;23;20003;-95
2024/02/23 00:53:48;;;;;;;7.63;1.30;;;;;;;;;;6192841;23;19997;-94
2024/02/23 00:56:13;;;;;;;10.57;1.40;;;;;;;;;;6194154;23;20001;-94
2024/02/23 00:58:38;;;;;;;5.20;0.88;;;;;;;;;;6192721;23;20005;-93
2024/02/23 01:01:04;;;;;;;7.95;1.20;;;;;;;;;;6199961;23;20001;-94
2024/02/23 01:03:29;;;;;;;10.35;1.42;;;;;;;;;;6194748;23;19997;-93
2024/02/23 01:05:54;;;;;;;8.57;1.13;;;;;;;;;;6187021;23;20103;-95
2024/02/23 01:08:20;;;;;;;9.98;1.13;;;;;;;;;;6184236;23;20021;-94
2024/02/23 01:10:45;;;;;;;9.43;1.60;;;;;;;;;;6183822;23;20270;-94
2024/02/23 01:13:10;;;;;;;5.53;1.00;;;;;;;;;;6184523;23;20423;-94
2024/02/23 01:15:35;;;;;;;9.95;0.90;;;;;;;;;;6184179;23;20072;-94
2024/02/23 01:18:01;;;;;;;26.42;2.05;;;;;;;;;;6185719;23;20135;-93
2024/02/23 01:20:26;;;;;;;12.20;1.40;;;;;;;;;;6187190;23;19993;-94
2024/02/23 01:22:51;;;;;;;7.18;0.93;;;;;;;;;;6185706;23;19997;-94
2024/02/23 01:25:17;;;;;;;11.95;1.30;;;;;;;;;;6185250;23;20072;-94
2024/02/23 01:27:44;;;;;;;14.13;2.30;;;;;;;;;;6185378;23;20479;-94
2024/02/23 01:30:09;;;;;;;27.38;2.00;;;;;;;;;;6185898;23;20058;-94
2024/02/23 01:32:37;;;;;;;3.72;1.42;;;;;;;;;;6185487;23;20005;-94
2024/02/23 01:35:02;;;;;;;7.65;1.52;;;;;;;;;;6185322;23;20001;-93
2024/02/23 01:37:27;;;;;;;8.82;1.20;;;;;;;;;;6185795;23;19997;-94
2024/02/23 01:39:53;;;;;;;7.63;1.15;;;;;;;;;;6185868;23;20005;-94
2024/02/23 01:42:18;;;;;;;8.43;1.25;;;;;;;;;;6185664;23;20001;-94
2024/02/23 01:44:43;;;;;;;4.80;1.05;;;;;;;;;;6185550;23;20008;-93
2024/02/23 01:47:09;;;;;;;8.65;1.00;;;;;;;;;;6185818;23;20436;-93
2024/02/23 01:49:35;;;;;;;4.63;0.73;;;;;;;;;;6185670;23;19997;-94
2024/02/23 01:52:00;;;;;;;7.60;0.75;;;;;;;;;;6185757;23;20055;-93
2024/02/23 01:54:28;;;;;;;10.65;1.65;;;;;;;;;;6185555;23;20000;-94
2024/02/23 01:56:53;;;;;;;5.47;1.33;;;;;;;;;;6186794;23;19997;-94
2024/02/23 01:59:19;;;;;;;12.75;1.05;;;;;;;;;;6186564;23;20550;-93
2024/02/23 02:01:44;;;;;;;4.10;0.55;;;;;;;;;;6186104;23;20412;-95
2024/02/23 02:04:09;;;;;;;8.40;0.95;;;;;;;;;;6185997;23;20004;-93
2024/02/23 02:06:34;;;;;;;6.25;1.75;;;;;;;;;;6185232;23;20446;-94
2024/02/23 02:09:00;;;;;;;2.53;0.70;;;;;;;;;;6185522;23;20483;-94
2024/02/23 02:11:25;;;;;;;6.07;0.50;;;;;;;;;;6185570;23;20001;-93
2024/02/23 02:13:50;;;;;;;0.67;0.20;;;;;;;;;;6185480;23;20001;-94
2024/02/23 02:16:15;;;;;;;3.00;0.43;;;;;;;;;;6186531;23;20317;-93
2024/02/23 02:18:41;;;;;;;1.35;0.40;;;;;;;;;;6184934;23;19996;-93
2024/02/23 02:21:06;;;;;;;3.50;0.47;;;;;;;;;;6184784;23;20013;-94
2024/02/23 02:23:31;;;;;;;3.30;0.38;;;;;;;;;;6186111;23;19997;-94
2024/02/23 02:25:57;;;;;;;1.75;0.60;;;;;;;;;;6160183;23;20088;-94
2024/02/23 02:28:24;;;;;;;4.30;0.40;;;;;;;;;;6160537;23;20008;-94
2024/02/23 02:30:49;;;;;;;4.15;0.47;;;;;;;;;;6160429;23;20502;-94
2024/02/23 02:33:15;;;;;;;1.83;0.20;;;;;;;;;;6186499;23;20028;-93
2024/02/23 02:35:40;;;;;;;0.75;0.30;;;;;;;;;;6159976;23;20005;-93
2024/02/23 02:38:05;;;;;;;1.02;0.30;;;;;;;;;;6186005;23;20060;-94
2024/02/23 02:40:31;;;;;;;3.25;0.30;;;;;;;;;;6186445;23;20055;-93
2024/02/23 02:42:57;;;;;;;2.45;0.50;;;;;;;;;;6159865;23;19997;-94
2024/02/23 02:45:22;;;;;;;6.57;0.63;;;;;;;;;;6159588;23;20058;-92
2024/02/23 02:47:47;;;;;;;11.20;0.70;;;;;;;;;;6159938;23;20004;-92
2024/02/23 02:50:12;;;;;;;7.30;0.70;;;;;;;;;;6159785;23;20455;-92
2024/02/23 02:52:37;;;;;;;4.82;0.30;;;;;;;;;;6159589;23;20227;-93
2024/02/23 02:55:03;;;;;;;4.83;0.50;;;;;;;;;;6159707;23;20013;-94
2024/02/23 02:57:29;;;;;;;12.77;0.68;;;;;;;;;;6159729;23;20330;-94
2024/02/23 02:59:55;;;;;;;7.47;0.52;;;;;;;;;;6159857;23;20483;-94
2024/02/23 03:02:20;;;;;;;5.73;0.57;;;;;;;;;;6160007;23;20087;-93
2024/02/23 03:04:49;;;;;;;4.40;0.35;;;;;;;;;;6159204;23;20232;-93
2024/02/23 03:07:14;;;;;;;8.60;0.82;;;;;;;;;;6185733;23;20009;-94
2024/02/23 03:09:39;;;;;;;7.80;0.70;;;;;;;;;;6159472;23;20080;-94
2024/02/23 03:12:05;;;;;;;8.18;0.73;;;;;;;;;;6159558;23;20001;-95
2024/02/23 03:14:30;;;;;;;4.38;0.65;;;;;;;;;;6159691;23;20004;-94
2024/02/23 03:16:55;;;;;;;5.20;0.77;;;;;;;;;;6159636;23;20024;-92
2024/02/23 03:19:22;;;;;;;1.83;0.43;;;;;;;;;;6159606;23;20560;-94
2024/02/23 03:21:47;;;;;;;2.72;0.60;;;;;;;;;;6159227;23;20005;-93
2024/02/23 03:24:13;;;;;;;7.60;0.90;;;;;;;;;;6164422;23;20011;-94
2024/02/23 03:26:38;;;;;;;11.83;0.67;;;;;;;;;;6183729;23;20099;-92
2024/02/23 03:29:03;;;;;;;4.15;0.65;;;;;;;;;;6183662;23;20301;-93
2024/02/23 03:31:28;;;;;;;10.70;0.97;;;;;;;;;;6184312;23;20001;-93
2024/02/23 03:33:54;;;;;;;6.60;0.77;;;;;;;;;;6184395;23;20215;-93
2024/02/23 03:36:19;;;;;;;3.00;0.65;;;;;;;;;;6183910;23;20001;-94
2024/02/23 03:38:44;;;;;;;3.42;0.70;;;;;;;;;;6183714;23;20032;-93
2024/02/23 03:41:09;;;;;;;4.72;0.40;;;;;;;;;;6184041;23;20005;-94
2024/02/23 03:43:35;;;;;;;4.53;0.70;;;;;;;;;;6183898;23;20420;-94
2024/02/23 03:46:00;;;;;;;6.65;2.65;;;;;;;;;;6183866;23;20247;-93
2024/02/23 03:48:25;;;;;;;6.75;1.52;;;;;;;;;;6183893;23;19997;-94
2024/02/23 03:50:50;;;;;;;4.20;1.47;;;;;;;;;;6183931;23;20000;-93
2024/02/23 03:53:16;;;;;;;6.28;0.93;;;;;;;;;;6183804;23;20314;-93
2024/02/23 03:55:41;;;;;;;5.55;0.80;;;;;;;;;;6183879;23;20427;-94
2024/02/23 03:58:06;;;;;;;6.40;0.75;;;;;;;;;;6184052;23;20029;-93
2024/02/23 04:00:32;;;;;;;10.65;1.05;;;;;;;;;;6183650;23;20004;-95
2024/02/23 04:02:57;;;;;;;6.90;0.95;;;;;;;;;;6183956;23;20067;-93
2024/02/23 04:05:22;;;;;;;9.80;0.70;;;;;;;;;;6183364;23;20087;-93
2024/02/23 04:07:47;;;;;;;3.75;0.60;;;;;;;;;;6183560;23;20263;-94
2024/02/23 04:10:16;;;;;;;6.23;0.80;;;;;;;;;;6183715;23;20000;-94
2024/02/23 04:12:41;;;;;;;4.72;0.80;;;;;;;;;;6183465;23;20262;-94
2024/02/23 04:15:07;;;;;;;6.20;0.90;;;;;;;;;;6183838;23;19997;-94
2024/02/23 04:17:32;;;;;;;12.55;1.10;;;;;;;;;;6185263;23;20008;-94
2024/02/23 04:20:00;;;;;;;5.70;0.88;;;;;;;;;;6183921;23;20029;-95
2024/02/23 04:22:25;;;;;;;8.15;0.80;;;;;;;;;;6183706;23;20031;-93
2024/02/23 04:24:50;;;;;;;10.20;1.23;;;;;;;;;;6183209;23;20009;-93
2024/02/23 04:27:15;;;;;;;12.85;0.80;;;;;;;;;;6183507;23;20019;-94
2024/02/23 04:29:41;;;;;;;13.23;2.58;;;;;;;;;;6183575;23;20002;-95
2024/02/23 04:32:06;;;;;;;9.77;1.27;;;;;;;;;;6183634;23;20015;-93
2024/02/23 04:34:31;;;;;;;9.07;2.13;;;;;;;;;;6183482;23;20028;-92
2024/02/23 04:36:56;;;;;;;6.13;1.08;;;;;;;;;;6183552;23;20008;-93
2024/02/23 04:39:22;;;;;;;8.20;1.25;;;;;;;;;;6183546;23;20004;-93
2024/02/23 04:41:47;;;;;;;6.43;1.77;;;;;;;;;;6183541;23;20009;-93
2024/02/23 04:44:13;;;;;;;8.05;1.08;;;;;;;;;;6185105;23;20120;-93
2024/02/23 04:46:38;;;;;;;12.75;1.30;;;;;;;;;;6182809;23;20019;-92
2024/02/23 04:49:03;;;;;;;8.18;0.90;;;;;;;;;;6183810;23;20004;-92
2024/02/23 04:51:28;;;;;;;9.90;1.00;;;;;;;;;;6184580;23;20015;-93
2024/02/23 04:53:53;;;;;;;11.98;1.33;;;;;;;;;;6185328;23;20257;-94
2024/02/23 04:56:19;;;;;;;10.82;1.52;;;;;;;;;;6185507;23;19993;-93
2024/02/23 04:58:44;;;;;;;9.30;1.10;;;;;;;;;;6185428;23;20005;-93
2024/02/23 05:01:10;;;;;;;14.85;1.30;;;;;;;;;;6185493;23;20001;-94
2024/02/23 05:03:36;;;;;;;10.10;1.50;;;;;;;;;;6185303;23;20408;-94
2024/02/23 05:06:02;;;;;;;13.00;1.92;;;;;;;;;;6185292;23;20435;-94
2024/02/23 05:08:27;;;;;;;3.78;0.80;;;;;;;;;;6185424;23;20004;-93
2024/02/23 05:10:53;;;;;;;4.40;0.85;;;;;;;;;;6185174;23;20001;-94
2024/02/23 05:13:18;;;;;;;8.13;1.02;;;;;;;;;;6185208;23;20051;-94
2024/02/23 05:15:43;;;;;;;11.77;0.90;;;;;;;;;;6184953;23;19989;-94
2024/02/23 05:18:08;;;;;;;7.60;0.93;;;;;;;;;;6185461;23;20005;-93
2024/02/23 05:20:33;;;;;;;10.70;1.23;;;;;;;;;;6185354;23;20008;-95
2024/02/23 05:22:59;;;;;;;10.27;1.20;;;;;;;;;;6185765;23;20266;-92
2024/02/23 05:25:25;;;;;;;6.17;0.53;;;;;;;;;;6184624;23;20009;-94
2024/02/23 05:27:51;;;;;;;7.88;1.10;;;;;;;;;;6185142;23;20705;-94
2024/02/23 05:30:16;;;;;;;11.68;1.20;;;;;;;;;;6184874;23;20008;-93
2024/02/23 05:32:41;;;;;;;4.93;0.70;;;;;;;;;;6184999;23;20001;-93
2024/02/23 05:35:06;;;;;;;4.93;1.25;;;;;;;;;;6186349;23;20004;-94
2024/02/23 05:37:32;;;;;;;7.30;1.00;;;;;;;;;;6184579;23;19997;-94
2024/02/23 05:39:59;;;;;;;6.83;2.60;;;;;;;;;;6184996;23;20009;-94
2024/02/23 05:42:25;;;;;;;9.43;0.98;;;;;;;;;;6185125;23;20223;-93
2024/02/23 05:44:50;;;;;;;6.32;0.90;;;;;;;;;;6185084;23;20163;-95
2024/02/23 05:47:15;;;;;;;9.07;1.08;;;;;;;;;;6184498;23;20322;-94
2024/02/23 05:49:40;;;;;;;9.93;0.70;;;;;;;;;;6185074;23;20076;-94
2024/02/23 05:52:06;;;;;;;8.90;1.02;;;;;;;;;;6185269;23;20012;-93
2024/02/23 05:54:31;;;;;;;14.95;1.38;;;;;;;;;;6185066;23;20494;-92
2024/02/23 05:56:56;;;;;;;5.17;0.70;;;;;;;;;;6184355;23;20397;-93
2024/02/23 05:59:22;;;;;;;7.17;0.90;;;;;;;;;;6184979;23;20629;-93
2024/02/23 06:01:47;;;;;;;7.25;1.20;;;;;;;;;;6185035;23;20714;-94
2024/02/23 06:04:12;;;;;;;7.80;1.13;;;;;;;;;;6184700;23;20443;-91
2024/02/23 06:06:40;;;;;;;5.75;0.68;;;;;;;;;;6184318;23;20096;-93
2024/02/23 06:09:06;;;;;;;4.18;0.60;;;;;;;;;;6186617;23;20290;-94
2024/02/23 06:11:31;;;;;;;4.30;0.60;;;;;;;;;;6184570;23;20259;-94
2024/02/23 06:13:56;;;;;;;2.87;0.90;;;;;;;;;;6186278;23;20002;-94
2024/02/23 06:16:21;;;;;;;6.55;0.95;;;;;;;;;;6184710;23;20234;-93
2024/02/23 06:18:47;;;;;;;8.50;0.90;;;;;;;;;;6184690;23;20024;-94
2024/02/23 06:21:13;;;;;;;10.52;1.00;;;;;;;;;;6184314;23;20056;-94
2024/02/23 06:23:39;;;;;;;5.38;0.70;;;;;;;;;;6184360;23;20059;-93
2024/02/23 06:26:05;;;;;;;6.00;0.77;;;;;;;;;;6159334;23;20016;-94
2024/02/23 06:28:30;;;;;;;5.13;0.55;;;;;;;;;;6159871;23;20001;-93
2024/02/23 06:30:55;;;;;;;6.32;0.80;;;;;;;;;;6159487;23;20004;-95
2024/02/23 06:33:20;;;;;;;8.93;1.10;;;;;;;;;;6159826;23;20371;-93
2024/02/23 06:35:46;;;;;;;9.07;0.90;;;;;;;;;;6159144;23;20708;-93
2024/02/23 06:38:11;;;;;;;6.70;0.88;;;;;;;;;;6159377;23;20012;-93
2024/02/23 06:40:36;;;;;;;7.63;0.80;;;;;;;;;;6159676;23;20051;-93
2024/02/23 06:43:01;;;;;;;6.85;1.05;;;;;;;;;;6159860;23;20005;-94
2024/02/23 06:45:26;;;;;;;7.47;0.93;;;;;;;;;;6185528;23;19997;-93
2024/02/23 06:47:52;;;;;;;5.25;0.98;;;;;;;;;;6159794;23;20005;-93
2024/02/23 06:50:17;;;;;;;4.93;0.87;;;;;;;;;;6159412;23;20008;-93
2024/02/23 06:52:42;;;;;;;5.88;1.50;;;;;;;;;;6159243;23;20231;-93
2024/02/23 06:55:09;;;;;;;8.70;0.90;;;;;;;;;;6159528;23;20088;-93
2024/02/23 06:57:34;;;;;;;8.75;1.17;;;;;;;;;;6159234;23;19993;-94
2024/02/23 07:00:00;;;;;;;15.57;1.38;;;;;;;;;;6159530;23;20000;-92
2024/02/23 07:02:25;;;;;;;3.38;0.88;;;;;;;;;;6185820;23;20020;-94
2024/02/23 07:04:50;;;;;;;9.10;1.10;;;;;;;;;;6159465;23;20063;-92
2024/02/23 07:07:16;;;;;;;9.55;2.13;;;;;;;;;;6184990;23;20251;-94
2024/02/23 07:09:41;;;;;;;11.80;1.23;;;;;;;;;;6159473;23;19997;-93
2024/02/23 07:12:06;;;;;;;5.57;0.93;;;;;;;;;;6159417;23;20005;-92
2024/02/23 07:14:31;;;;;;;6.18;1.55;;;;;;;;;;6159331;23;20000;-93
2024/02/23 07:16:57;;;;;;;12.85;1.73;;;;;;;;;;6159600;23;20001;-94
2024/02/23 07:19:22;;;;;;;12.63;1.17;;;;;;;;;;6159109;23;20005;-93
2024/02/23 07:21:47;;;;;;;15.70;2.88;;;;;;;;;;6159115;23;20454;-93
2024/02/23 07:24:13;;;;;;;12.00;1.92;;;;;;;;;;6185672;23;20064;-94
2024/02/23 07:26:38;;;;;;;11.98;1.23;;;;;;;;;;6185294;23;20012;-94
2024/02/23 07:29:03;;;;;;;11.20;1.30;;;;;;;;;;6158682;23;20001;-92
2024/02/23 07:31:28;;;;;;;8.82;1.10;;;;;;;;;;6185436;23;20001;-94
2024/02/23 07:33:54;;;;;;;5.43;0.75;;;;;;;;;;6159073;23;19993;-92
2024/02/23 07:36:19;;;;;;;11.57;1.33;;;;;;;;;;6159237;23;20004;-94
2024/02/23 07:38:44;;;;;;;7.07;0.90;;;;;;;;;;6158889;23;20219;-93
2024/02/23 07:41:10;;;;;;;5.80;0.77;;;;;;;;;;6158722;23;20012;-94
2024/02/23 07:43:35;;;;;;;10.07;1.00;;;;;;;;;;6185449;23;19993;-94
2024/02/23 07:46:02;;;;;;;8.98;1.10;;;;;;;;;;6158795;23;20005;-94
2024/02/23 07:48:27;;;;;;;9.57;0.80;;;;;;;;;;6159080;23;20001;-93
2024/02/23 07:50:52;;;;;;;10.73;1.73;;;;;;;;;;6158744;23;20028;-93
2024/02/23 07:53:17;;;;;;;9.65;1.83;;;;;;;;;;6158986;23;20282;-93
2024/02/23 07:55:42;;;;;;;9.30;1.80;;;;;;;;;;6184932;23;20005;-93
2024/02/23 07:58:08;;;;;;;8.93;1.45;;;;;;;;;;6159054;23;20143;-94
2024/02/23 08:00:34;;;;;;;11.02;1.52;;;;;;;;;;6158814;23;20256;-93
2024/02/23 08:03:00;;;;;;;13.20;2.13;;;;;;;;;;6158969;23;20291;-93
2024/02/23 08:05:25;;;;;;;7.53;1.40;;;;;;;;;;6158607;23;20631;-93
2024/02/23 08:07:50;;;;;;;15.90;2.60;;;;;;;;;;6158595;23;20005;-94
2024/02/23 08:10:16;;;;;;;8.47;1.70;;;;;;;;;;6158680;23;20025;-93
2024/02/23 08:12:41;;;;;;;5.50;1.43;;;;;;;;;;6158920;23;20223;-93
2024/02/23 08:15:06;;;;;;;5.93;0.90;;;;;;;;;;6158296;23;20535;-93
2024/02/23 08:17:32;;;;;;;12.38;1.38;;;;;;;;;;6184626;23;20330;-93
2024/02/23 08:19:57;;;;;;;6.72;0.98;;;;;;;;;;6158969;23;20408;-94
2024/02/23 08:22:23;;;;;;;7.03;1.07;;;;;;;;;;6158732;23;20032;-94
2024/02/23 08:24:48;;;;;;;5.03;0.65;;;;;;;;;;6170694;23;20697;-93
2024/02/23 08:27:13;;;;;;;7.65;1.45;;;;;;;;;;6184878;23;20012;-93
2024/02/23 08:29:39;;;;;;;12.93;2.47;;;;;;;;;;6183545;23;20001;-93
2024/02/23 08:32:04;;;;;;;13.23;1.35;;;;;;;;;;6183316;23;20227;-92
2024/02/23 08:34:29;;;;;;;8.65;1.50;;;;;;;;;;6184800;23;19997;-93
2024/02/23 08:36:54;;;;;;;10.60;1.02;;;;;;;;;;6184904;23;20001;-94
2024/02/23 08:39:22;;;;;;;4.80;0.83;;;;;;;;;;6183657;23;19993;-93
2024/02/23 08:41:47;;;;;;;9.52;0.88;;;;;;;;;;6183314;23;20234;-94
2024/02/23 08:44:12;;;;;;;8.27;1.48;;;;;;;;;;6183736;23;20124;-92
2024/02/23 08:46:39;;;;;;;5.53;1.00;;;;;;;;;;6184599;23;20013;-93
2024/02/23 08:49:04;;;;;;;5.88;1.00;;;;;;;;;;6183513;23;20060;-93
2024/02/23 08:51:29;;;;;;;7.53;1.42;;;;;;;;;;6183116;23;20001;-93
2024/02/23 08:53:56;;;;;;;11.40;1.20;;;;;;;;;;6184704;23;20371;-93
2024/02/23 08:56:21;;;;;;;4.50;0.65;;;;;;;;;;6183438;23;20005;-93
2024/02/23 08:58:47;;;;;;;7.40;0.80;;;;;;;;;;6185026;23;19998;-93
2024/02/23 09:01:12;;;;;;;5.35;0.55;;;;;;;;;;6183524;23;20230;-93
2024/02/23 09:03:38;;;;;;;4.65;0.95;;;;;;;;;;6183443;23;20428;-93
2024/02/23 09:06:03;;;;;;;3.78;0.90;;;;;;;;;;6183164;23;20001;-94
2024/02/23 09:08:28;;;;;;;6.18;0.60;;;;;;;;;;6183271;23;20005;-92
2024/02/23 09:10:54;;;;;;;5.53;0.43;;;;;;;;;;6183513;23;19989;-94
2024/02/23 09:13:19;;;;;;;7.57;0.43;;;;;;;;;;6183370;23;20167;-93
2024/02/23 09:15:44;;;;;;;2.83;0.50;;;;;;;;;;6183154;23;20688;-94
2024/02/23 09:18:09;;;;;;;2.58;0.47;;;;;;;;;;6183380;23;20012;-94
2024/02/23 09:20:35;;;;;;;4.63;0.63;;;;;;;;;;6183569;23;20001;-93
2024/02/23 09:23:00;;;;;;;2.33;0.40;;;;;;;;;;6184909;23;20003;-93
2024/02/23 09:25:25;;;;;;;1.77;0.45;;;;;;;;;;6182651;23;20302;-93
2024/02/23 09:27:50;;;;;;;5.27;0.40;;;;;;;;;;6183450;23;20001;-93
2024/02/23 09:30:15;;;;;;;3.70;0.37;;;;;;;;;;6184820;23;20215;-93
2024/02/23 09:32:41;;;;;;;2.33;0.25;;;;;;;;;;6183374;23;20231;-94
2024/02/23 09:35:06;;;;;;;2.30;0.32;;;;;;;;;;6183517;23;20001;-93
2024/02/23 09:37:32;;;;;;;4.55;1.55;;;;;;;;;;6184669;23;20031;-94
2024/02/23 09:39:57;;;;;;;1.88;0.28;;;;;;;;;;6185068;23;20478;-94
2024/02/23 09:42:25;;;;;;;2.55;0.17;;;;;;;;;;6186736;23;19989;-94
2024/02/23 09:44:57;;;;;;;1.30;0.20;;;;;;;;;;6186114;23;20005;-93
2024/02/23 09:47:23;;;;;;;1.85;0.10;;;;;;;;;;6185599;23;20335;-93
2024/02/23 09:49:50;;;;;;;2.47;0.32;;;;;;;;;;6187058;23;20367;-93
2024/02/23 09:52:15;;;;;;;1.13;0.25;;;;;;;;;;6185555;23;20005;-94
2024/02/23 09:54:41;;;;;;;1.05;0.20;;;;;;;;;;6185638;23;20004;-93
2024/02/23 09:57:10;;;;;;;1.90;0.30;;;;;;;;;;6185618;23;20008;-94
2024/02/23 09:59:35;;;;;;;2.78;0.20;;;;;;;;;;6185953;23;20227;-94
2024/02/23 10:02:08;;;;;;;3.30;0.52;;;;;;;;;;6185874;23;20012;-94
2024/02/23 10:04:33;;;;;;;2.05;0.20;;;;;;;;;;6184890;23;20002;-94
2024/02/23 10:06:58;;;;;;;3.22;0.20;;;;;;;;;;6185853;23;20013;-94
2024/02/23 10:09:24;;;;;;;1.33;0.20;;;;;;;;;;6186075;23;20008;-94
2024/02/23 10:11:53;;;;;;;0.52;0.17;;;;;;;;;;6185797;23;20376;-94
2024/02/23 10:14:18;;;;;;;6.32;0.40;;;;;;;;;;6186136;23;20000;-94
2024/02/23 10:16:43;;;;;;;3.50;0.30;;;;;;;;;;6186233;23;20005;-96
2024/02/23 10:19:09;;;;;;;0.60;0.28;;;;;;;;;;6186638;23;20084;-94
2024/02/23 10:21:35;;;;;;;0.30;0.10;;;;;;;;;;6186880;23;19997;-94
2024/02/23 10:24:00;;;;;;;1.58;0.20;;;;;;;;;;6187026;23;20235;-94
2024/02/23 10:26:26;;;;;;;2.15;0.30;;;;;;;;;;6186998;23;20012;-95
2024/02/23 10:28:52;;;;;;;1.45;0.55;;;;;;;;;;6187145;23;20328;-94
2024/02/23 10:31:17;;;;;;;1.05;0.15;;;;;;;;;;6187428;23;20008;-95
2024/02/23 10:33:44;;;;;;;0.63;0.55;;;;;;;;;;6186957;23;19989;-94
2024/02/23 10:36:11;;;;;;;3.65;0.30;;;;;;;;;;6186742;23;20004;-93
2024/02/23 10:38:38;;;;;;;0.85;0.20;;;;;;;;;;6186722;23;20053;-94
2024/02/23 10:41:05;;;;;;;0.45;0.08;;;;;;;;;;6186222;23;20036;-94
2024/02/23 10:43:34;;;;;;;2.15;0.10;;;;;;;;;;6186998;23;20001;-94
2024/02/23 10:46:02;;;;;;;1.55;0.50;;;;;;;;;;6186342;23;20009;-94
2024/02/23 10:48:28;;;;;;;0.55;0.17;;;;;;;;;;6185926;23;20007;-94
2024/02/23 10:50:53;;;;;;;1.02;0.20;;;;;;;;;;6186876;23;20028;-94
2024/02/23 10:53:19;;;;;;;1.65;0.30;;;;;;;;;;6186592;23;19997;-95
2024/02/23 10:55:45;;;;;;;0.25;0.10;;;;;;;;;;6186955;23;20004;-95
2024/02/23 10:58:11;;;;;;;0.82;0.20;;;;;;;;;;6186512;23;20015;-95
2024/02/23 11:00:37;;;;;;;1.58;0.20;;;;;;;;;;6186066;23;20005;-96
2024/02/23 11:03:03;;;;;;;3.22;0.20;;;;;;;;;;6186910;23;20495;-95
2024/02/23 11:05:29;;;;;;;1.25;0.35;;;;;;;;;;6186608;23;19997;-95
2024/02/23 11:07:58;;;;;;;3.35;0.30;;;;;;;;;;6187753;23;20005;-94
2024/02/23 11:10:27;;;;;;;1.08;0.20;;;;;;;;;;6187551;23;20001;-94
2024/02/23 11:13:00;;;;;;;1.38;0.35;;;;;;;;;;6187838;23;20420;-94
2024/02/23 11:15:26;;;;;;;2.10;0.45;;;;;;;;;;6187276;23;20007;-95
2024/02/23 11:17:51;;;;;;;1.85;0.30;;;;;;;;;;6187868;23;20080;-94
2024/02/23 11:20:16;;;;;;;5.72;0.30;;;;;;;;;;6187243;23;19997;-94
2024/02/23 11:22:41;;;;;;;3.83;0.45;;;;;;;;;;6188257;23;20040;-94
2024/02/23 11:25:10;;;;;;;6.83;0.53;;;;;;;;;;6190820;23;20450;-94
2024/02/23 11:27:36;;;;;;;2.00;1.58;;;;;;;;;;6187608;23;20736;-95
2024/02/23 11:30:03;;;;;;;4.43;0.60;;;;;;;;;;6188222;23;20056;-95
2024/02/23 11:32:38;;;;;;;3.97;0.70;;;;;;;;;;6188195;23;20060;-95
2024/02/23 11:35:05;;;;;;;4.50;0.63;;;;;;;;;;6188562;23;20032;-95
2024/02/23 11:37:30;;;;;;;5.40;0.70;;;;;;;;;;6188816;23;20001;-95
2024/02/23 11:39:56;;;;;;;4.13;0.68;;;;;;;;;;6188633;23;20003;-94
2024/02/23 11:42:23;;;;;;;5.18;0.60;;;;;;;;;;6189599;23;20001;-95
2024/02/23 11:44:49;;;;;;;1.30;0.25;;;;;;;;;;6190715;23;20004;-94
2024/02/23 11:47:14;;;;;;;4.07;0.82;;;;;;;;;;6198299;23;20020;-93
2024/02/23 11:49:39;;;;;;;2.88;0.70;;;;;;;;;;6199777;23;20408;-93
2024/02/23 11:52:05;;;;;;;2.25;0.40;;;;;;;;;;6197983;23;20000;-93
2024/02/23 11:54:30;;;;;;;8.60;1.08;;;;;;;;;;6196891;23;20084;-94
2024/02/23 11:56:56;;;;;;;6.20;0.70;;;;;;;;;;6196999;23;20009;-93
2024/02/23 11:59:23;;;;;;;3.42;0.77;;;;;;;;;;6198191;23;20474;-92
2024/02/23 12:01:48;;;;;;;4.40;1.08;;;;;;;;;;6198052;23;20069;-94
2024/02/23 12:04:14;;;;;;;5.22;0.70;;;;;;;;;;6195801;23;20024;-93
2024/02/23 12:06:40;;;;;;;3.10;0.50;;;;;;;;;;6196623;23;20043;-92
2024/02/23 12:09:05;;;;;;;2.58;0.47;;;;;;;;;;6193516;23;20001;-94
2024/02/23 12:11:30;;;;;;;2.28;0.35;;;;;;;;;;6192938;23;20024;-94
2024/02/23 12:13:57;;;;;;;5.55;0.98;;;;;;;;;;6195072;23;20004;-93
2024/02/23 12:16:22;;;;;;;2.25;0.50;;;;;;;;;;6189194;23;20001;-93
2024/02/23 12:18:52;;;;;;;6.30;0.50;;;;;;;;;;6197296;23;20001;-93
2024/02/23 12:21:18;;;;;;;2.40;0.45;;;;;;;;;;6192503;23;20001;-93
2024/02/23 12:23:45;;;;;;;3.28;0.50;;;;;;;;;;6195988;23;20005;-93
2024/02/23 12:26:13;;;;;;;0.60;0.30;;;;;;;;;;6168753;23;20001;-94
2024/02/23 12:28:38;;;;;;;4.13;0.30;;;;;;;;;;6168359;23;20025;-94
2024/02/23 12:31:04;;;;;;;1.77;0.30;;;;;;;;;;6169471;23;19997;-95
2024/02/23 12:33:31;;;;;;;5.63;0.25;;;;;;;;;;6170952;23;20068;-94
2024/02/23 12:35:57;;;;;;;0.43;0.10;;;;;;;;;;6168404;23;20084;-94
2024/02/23 12:38:23;;;;;;;1.00;0.28;;;;;;;;;;6167215;23;19997;-93
2024/02/23 12:40:48;;;;;;;0.10;0.10;;;;;;;;;;6170344;23;20020;-94
2024/02/23 12:43:13;;;;;;;1.10;0.20;;;;;;;;;;6169027;23;20001;-94
2024/02/23 12:45:39;;;;;;;0.25;0.10;;;;;;;;;;6169880;23;19997;-93
2024/02/23 12:48:04;;;;;;;1.08;0.28;;;;;;;;;;6169957;23;20012;-93
2024/02/23 12:50:30;;;;;;;1.70;0.30;;;;;;;;;;6167938;23;20001;-94
2024/02/23 12:52:55;;;;;;;1.85;0.10;;;;;;;;;;6170141;23;20008;-94
2024/02/23 12:55:20;;;;;;;1.02;0.50;;;;;;;;;;6171513;23;20032;-94
2024/02/23 12:57:45;;;;;;;3.05;0.52;;;;;;;;;;6167672;23;20428;-94
2024/02/23 13:00:11;;;;;;;3.10;0.30;;;;;;;;;;6166603;23;19997;-94
2024/02/23 13:02:36;;;;;;;2.03;0.28;;;;;;;;;;6167649;23;20077;-94
2024/02/23 13:05:02;;;;;;;1.30;0.47;;;;;;;;;;6175006;23;20439;-93
2024/02/23 13:07:27;;;;;;;1.05;0.30;;;;;;;;;;6171197;23;20005;-93
2024/02/23 13:09:52;;;;;;;2.22;0.20;;;;;;;;;;6171067;23;20001;-94
2024/02/23 13:12:17;;;;;;;3.40;0.50;;;;;;;;;;6169230;23;20387;-94
2024/02/23 13:14:43;;;;;;;1.67;0.22;;;;;;;;;;6177167;23;20020;-93
2024/02/23 13:17:08;;;;;;;1.33;0.30;;;;;;;;;;6175375;23;20032;-94
2024/02/23 13:19:33;;;;;;;1.85;0.15;;;;;;;;;;6172250;23;20020;-94
2024/02/23 13:22:00;;;;;;;2.03;0.30;;;;;;;;;;6172716;23;20008;-95
2024/02/23 13:24:26;;;;;;;2.47;0.30;;;;;;;;;;6179947;23;20013;-94
2024/02/23 13:26:51;;;;;;;1.85;0.15;;;;;;;;;;6198454;23;20420;-94
2024/02/23 13:29:16;;;;;;;2.10;0.20;;;;;;;;;;6200368;23;20001;-94
2024/02/23 13:31:42;;;;;;;1.65;0.20;;;;;;;;;;6195812;23;20231;-94
2024/02/23 13:34:07;;;;;;;1.60;0.28;;;;;;;;;;6199219;23;20380;-94
2024/02/23 13:36:32;;;;;;;1.05;0.20;;;;;;;;;;6199674;23;20003;-94
2024/02/23 13:38:57;;;;;;;2.10;0.23;;;;;;;;;;6189757;23;20420;-95
2024/02/23 13:41:23;;;;;;;0.10;0.00;;;;;;;;;;6186769;23;20758;-94
2024/02/23 13:43:48;;;;;;;2.03;0.20;;;;;;;;;;6186704;23;19993;-94
2024/02/23 13:46:13;;;;;;;1.23;0.30;;;;;;;;;;6186308;23;20037;-95
2024/02/23 13:48:38;;;;;;;0.98;0.13;;;;;;;;;;6185988;23;20013;-94
2024/02/23 13:51:04;;;;;;;1.60;0.25;;;;;;;;;;6186192;23;20387;-95
2024/02/23 13:53:30;;;;;;;3.17;0.63;;;;;;;;;;6186161;23;20005;-93
2024/02/23 13:55:56;;;;;;;0.88;0.32;;;;;;;;;;6186235;23;20004;-93
2024/02/23 13:58:21;;;;;;;1.40;0.57;;;;;;;;;;6186816;23;20001;-94
2024/02/23 14:00:46;;;;;;;0.20;0.10;;;;;;;;;;6184908;23;20001;-94
2024/02/23 14:03:15;;;;;;;0.75;0.08;;;;;;;;;;6184796;23;20626;-93
2024/02/23 14:05:44;;;;;;;1.55;0.10;;;;;;;;;;6186060;23;20084;-94
2024/02/23 14:08:09;;;;;;;1.23;0.50;;;;;;;;;;6185027;23;20008;-94
2024/02/23 14:10:34;;;;;;;0.52;0.10;;;;;;;;;;6185025;23;20001;-95
2024/02/23 14:13:00;;;;;;;0.90;0.20;;;;;;;;;;6185141;23;20012;-94
2024/02/23 14:15:27;;;;;;;2.97;0.30;;;;;;;;;;6185840;23;20351;-94
2024/02/23 14:17:52;;;;;;;0.93;0.40;;;;;;;;;;6185438;23;20052;-94
2024/02/23 14:20:17;;;;;;;4.32;0.22;;;;;;;;;;6185252;23;20001;-94
2024/02/23 14:22:43;;;;;;;2.97;0.60;;;;;;;;;;6184899;23;20487;-94
2024/02/23 14:25:08;;;;;;;1.77;0.45;;;;;;;;;;6184739;23;20016;-94
2024/02/23 14:27:33;;;;;;;0.75;0.17;;;;;;;;;;6185043;23;20032;-95
2024/02/23 14:29:58;;;;;;;3.50;0.50;;;;;;;;;;6185553;23;20491;-94